createdAt,value
2022-12-13T00:00:04.840Z,0.28
2022-12-13T00:02:36.026Z,0.10
2022-12-13T00:05:06.529Z,0.48
2022-12-13T00:07:34.998Z,0.01
2022-12-13T00:10:14.057Z,-0.02
2022-12-13T00:12:47.172Z,-0.16
2022-12-13T00:18:02.376Z,0.21
2022-12-13T00:20:43.026Z,0.09
2022-12-13T00:23:17.686Z,-0.09
2022-12-13T00:25:49.708Z,0.22
2022-12-13T00:28:27.353Z,0.05
2022-12-13T00:31:19.745Z,-0.06
2022-12-13T00:33:54.616Z,0.22
2022-12-13T00:36:41.028Z,0.17
2022-12-13T00:39:12.115Z,0.00
2022-12-13T00:41:46.814Z,0.02
2022-12-13T00:44:25.852Z,-0.06
2022-12-13T00:47:02.614Z,-0.13
2022-12-13T00:49:39.903Z,-0.29
2022-12-13T00:52:13.627Z,-0.27
2022-12-13T00:54:48.240Z,0.03
2022-12-13T00:57:24.144Z,-0.04
2022-12-13T01:00:01.205Z,-0.04
2022-12-13T01:02:32.983Z,-0.04
2022-12-13T01:05:07.170Z,-0.12
2022-12-13T01:07:47.050Z,-0.15
2022-12-13T01:10:22.878Z,0.05
2022-12-13T01:12:56.822Z,0.04
2022-12-13T01:15:33.490Z,-0.02
2022-12-13T01:18:10.689Z,-0.11
2022-12-13T01:20:59.218Z,-0.10
2022-12-13T01:23:30.046Z,-0.13
2022-12-13T01:26:08.376Z,-0.04
2022-12-13T01:28:48.691Z,-0.10
2022-12-13T01:31:27.156Z,-0.31
2022-12-13T01:33:54.511Z,-0.29
2022-12-13T01:36:38.065Z,0.04
2022-12-13T01:39:15.246Z,-0.17
2022-12-13T01:41:45.147Z,-0.23
2022-12-13T01:44:49.486Z,-0.01
2022-12-13T01:47:33.375Z,-0.14
2022-12-13T01:50:21.258Z,-0.19
2022-12-13T01:53:00.242Z,-0.28
2022-12-13T01:55:41.455Z,-0.07
2022-12-13T01:58:13.657Z,-0.30
2022-12-13T02:00:49.004Z,-0.23
2022-12-13T02:03:22.958Z,-0.12
2022-12-13T02:06:12.087Z,0.00
2022-12-13T02:08:45.106Z,-0.18
2022-12-13T02:11:14.738Z,-0.17
2022-12-13T02:13:42.847Z,-0.25
2022-12-13T02:16:12.711Z,-0.26
2022-12-13T02:19:26.394Z,-0.50
2022-12-13T02:22:12.473Z,-0.52
2022-12-13T02:25:06.958Z,-0.28
2022-12-13T02:27:50.384Z,-0.35
2022-12-13T02:30:30.187Z,-0.38
2022-12-13T02:33:22.208Z,-0.56
2022-12-13T02:36:17.517Z,-0.38
2022-12-13T02:39:08.683Z,-0.55
2022-12-13T02:42:04.695Z,-0.58
2022-12-13T02:44:43.010Z,-0.39
2022-12-13T02:47:25.315Z,-0.49
2022-12-13T02:50:03.718Z,-0.64
2022-12-13T02:52:39.602Z,-0.68
2022-12-13T02:55:14.074Z,-0.48
2022-12-13T02:57:46.770Z,-0.40
2022-12-13T03:00:27.834Z,-0.54
2022-12-13T03:03:13.220Z,-0.38
2022-12-13T03:05:47.204Z,-0.48
2022-12-13T03:08:20.924Z,-0.33
2022-12-13T03:11:18.425Z,-0.63
2022-12-13T03:13:57.577Z,-0.78
2022-12-13T03:16:40.385Z,-0.58
2022-12-13T03:19:11.290Z,-0.67
2022-12-13T03:21:48.611Z,-0.53
2022-12-13T03:24:25.961Z,-0.56
2022-12-13T03:27:06.095Z,-0.60
2022-12-13T03:29:33.435Z,-0.72
2022-12-13T03:32:04.215Z,-0.58
2022-12-13T03:34:43.386Z,-0.74
2022-12-13T03:37:18.620Z,-0.62
2022-12-13T03:39:45.910Z,-0.65
2022-12-13T03:42:15.730Z,-0.79
2022-12-13T03:44:46.301Z,-0.74
2022-12-13T03:47:23.424Z,-0.57
2022-12-13T03:49:54.493Z,-0.66
2022-12-13T03:52:31.112Z,-0.72
2022-12-13T03:55:04.959Z,-0.56
2022-12-13T03:57:36.026Z,-0.53
2022-12-13T04:00:06.193Z,-0.47
2022-12-13T04:02:42.004Z,-0.46
2022-12-13T04:05:15.923Z,-0.65
2022-12-13T04:07:52.307Z,-0.44
2022-12-13T04:10:28.475Z,-0.15
2022-12-13T04:13:02.167Z,-0.46
2022-12-13T04:15:32.284Z,-0.35
2022-12-13T04:18:05.575Z,-0.48
2022-12-13T04:20:38.652Z,-0.62
2022-12-13T04:23:12.576Z,-0.57
2022-12-13T04:25:44.848Z,-0.67
2022-12-13T04:28:12.578Z,-0.74
2022-12-13T04:30:56.472Z,-0.70
2022-12-13T04:33:27.496Z,-0.82
2022-12-13T04:35:57.560Z,-0.63
2022-12-13T04:38:28.616Z,-0.79
2022-12-13T04:41:15.784Z,-0.63
2022-12-13T04:43:44.452Z,-0.64
2022-12-13T04:46:18.157Z,-0.75
2022-12-13T04:48:54.896Z,-0.80
2022-12-13T04:51:33.671Z,-0.92
2022-12-13T04:54:04.235Z,-0.72
2022-12-13T04:56:56.835Z,2.26
2022-12-13T04:59:30.737Z,5.64
2022-12-13T05:02:08.936Z,5.37
2022-12-13T05:04:43.364Z,4.32
2022-12-13T05:07:14.481Z,5.95
2022-12-13T05:09:53.811Z,6.63
2022-12-13T05:12:25.917Z,7.64
2022-12-13T05:14:55.385Z,7.26
2022-12-13T05:17:25.554Z,6.26
2022-12-13T05:20:00.382Z,5.33
2022-12-13T05:22:34.763Z,4.99
2022-12-13T05:25:05.060Z,4.87
2022-12-13T05:27:38.432Z,5.92
2022-12-13T05:30:13.310Z,2.63
2022-12-13T05:32:47.455Z,1.03
2022-12-13T05:35:23.576Z,0.80
2022-12-13T05:37:55.473Z,-0.21
2022-12-13T05:40:29.125Z,-0.50
2022-12-13T05:43:03.583Z,-0.76
2022-12-13T05:45:58.020Z,1.38
2022-12-13T05:48:33.509Z,0.38
2022-12-13T05:51:09.949Z,-0.02
2022-12-13T05:53:42.862Z,-0.19
2022-12-13T05:56:22.430Z,-0.31
2022-12-13T05:58:57.388Z,-0.59
2022-12-13T06:01:27.983Z,-1.09
2022-12-13T06:04:04.358Z,-0.99
2022-12-13T06:06:38.329Z,-1.03
2022-12-13T06:09:12.435Z,-1.05
2022-12-13T06:11:43.357Z,-0.97
2022-12-13T06:14:22.380Z,-1.01
2022-12-13T06:16:52.715Z,-0.90
2022-12-13T06:19:24.544Z,-0.76
2022-12-13T06:22:00.406Z,-0.63
2022-12-13T06:24:34.612Z,-0.56
2022-12-13T06:27:05.962Z,-0.56
2022-12-13T06:29:35.779Z,-0.60
2022-12-13T06:32:10.188Z,-0.50
2022-12-13T06:34:43.730Z,-0.61
2022-12-13T06:37:15.533Z,-0.52
2022-12-13T06:39:44.003Z,-0.25
2022-12-13T06:42:21.461Z,-0.32
2022-12-13T06:44:56.118Z,-0.21
2022-12-13T06:47:32.636Z,-0.13
2022-12-13T06:50:05.442Z,-0.29
2022-12-13T06:52:41.346Z,-0.34
2022-12-13T06:55:09.254Z,-0.36
2022-12-13T06:57:40.733Z,0.06
2022-12-13T07:00:11.825Z,-0.10
2022-12-13T07:02:43.695Z,-0.09
2022-12-13T07:05:14.186Z,0.26
2022-12-13T07:07:51.988Z,0.73
2022-12-13T07:10:23.111Z,1.37
2022-12-13T07:12:54.584Z,2.39
2022-12-13T07:15:27.762Z,3.11
2022-12-13T07:18:01.020Z,3.29
2022-12-13T07:20:33.560Z,2.08
2022-12-13T07:23:07.536Z,1.58
2022-12-13T07:25:37.679Z,1.29
2022-12-13T07:28:11.984Z,1.29
2022-12-13T07:30:44.702Z,1.73
2022-12-13T07:33:22.387Z,1.88
2022-12-13T07:36:08.846Z,2.13
2022-12-13T07:38:41.850Z,2.40
2022-12-13T07:41:10.330Z,2.45
2022-12-13T07:43:37.727Z,2.83
2022-12-13T07:46:13.349Z,3.54
2022-12-13T07:48:47.626Z,3.76
2022-12-13T07:51:18.910Z,3.67
2022-12-13T07:53:52.549Z,3.59
2022-12-13T07:56:24.734Z,3.99
2022-12-13T07:58:57.846Z,4.23
2022-12-13T08:01:32.060Z,4.07
2022-12-13T08:04:06.340Z,4.18
2022-12-13T08:06:44.321Z,3.92
2022-12-13T08:09:19.780Z,4.19
2022-12-13T08:11:47.975Z,4.27
2022-12-13T08:14:18.543Z,4.69
2022-12-13T08:16:46.239Z,4.94
2022-12-13T08:19:13.923Z,5.43
2022-12-13T08:22:01.973Z,6.28
2022-12-13T08:24:30.922Z,6.45
2022-12-13T08:27:02.653Z,7.26
2022-12-13T08:29:34.206Z,7.50
2022-12-13T08:32:06.823Z,8.28
2022-12-13T08:34:35.899Z,8.17
2022-12-13T08:37:06.850Z,7.60
2022-12-13T08:39:41.849Z,7.63
2022-12-13T08:42:19.850Z,7.26
2022-12-13T08:44:57.160Z,7.79
2022-12-13T08:47:28.447Z,7.45
2022-12-13T08:50:03.777Z,7.30
2022-12-13T08:52:39.311Z,7.97
2022-12-13T08:55:13.659Z,7.94
2022-12-13T08:57:43.693Z,8.30
2022-12-13T09:00:14.402Z,8.02
2022-12-13T09:02:45.459Z,6.49
2022-12-13T09:05:34.231Z,6.36
2022-12-13T09:08:04.086Z,6.07
2022-12-13T09:10:38.442Z,8.26
2022-12-13T09:13:11.829Z,6.47
2022-12-13T09:15:45.908Z,5.72
2022-12-13T09:18:15.020Z,5.49
2022-12-13T09:20:49.516Z,5.46
2022-12-13T09:23:24.152Z,5.61
2022-12-13T09:26:05.872Z,5.73
2022-12-13T09:28:43.885Z,5.55
2022-12-13T09:31:19.565Z,5.43
2022-12-13T09:33:51.524Z,5.41
2022-12-13T09:36:21.835Z,5.35
2022-12-13T09:38:52.410Z,5.40
2022-12-13T09:41:41.065Z,5.31
2022-12-13T09:44:31.561Z,5.18
2022-12-13T09:47:13.399Z,5.57
2022-12-13T09:49:44.064Z,5.52
2022-12-13T09:52:25.719Z,5.21
2022-12-13T09:55:03.533Z,5.20
2022-12-13T09:57:46.172Z,5.25
2022-12-13T10:00:17.269Z,5.39
2022-12-13T10:02:51.279Z,5.39
2022-12-13T10:05:39.106Z,5.39
2022-12-13T10:08:21.589Z,5.50
2022-12-13T10:10:56.201Z,5.34
2022-12-13T10:13:44.245Z,5.36
2022-12-13T10:16:47.958Z,5.71
2022-12-13T10:19:31.373Z,5.39
2022-12-13T10:22:08.009Z,5.19
2022-12-13T10:25:01.000Z,5.19
2022-12-13T10:27:52.398Z,5.30
2022-12-13T10:30:28.474Z,5.02
2022-12-13T10:33:02.980Z,4.89
2022-12-13T10:35:38.935Z,4.97
2022-12-13T10:38:08.891Z,5.52
2022-12-13T10:40:45.962Z,5.11
2022-12-13T10:46:24.834Z,5.03
2022-12-13T10:48:56.541Z,4.86
2022-12-13T10:51:36.876Z,4.83
2022-12-13T10:54:05.020Z,5.34
2022-12-13T10:56:45.463Z,5.38
2022-12-13T10:59:19.073Z,5.46
2022-12-13T11:01:49.301Z,5.34
2022-12-13T11:04:28.922Z,5.40
2022-12-13T11:06:59.903Z,5.42
2022-12-13T11:09:38.226Z,5.70
2022-12-13T11:12:16.582Z,6.06
2022-12-13T11:15:04.330Z,5.88
2022-12-13T11:17:45.571Z,6.02
2022-12-13T11:20:23.594Z,5.88
2022-12-13T11:23:22.504Z,6.36
2022-12-13T11:25:59.652Z,6.44
2022-12-13T11:28:42.496Z,6.26
2022-12-13T11:31:41.659Z,6.14
2022-12-13T11:34:31.243Z,6.30
2022-12-13T11:37:33.885Z,6.33
2022-12-13T11:40:46.371Z,6.32
2022-12-13T11:44:00.942Z,6.42
2022-12-13T11:46:41.992Z,6.50
2022-12-13T11:49:24.697Z,6.83
2022-12-13T11:52:17.176Z,6.55
2022-12-13T11:55:01.049Z,7.19
2022-12-13T11:57:50.546Z,7.60
2022-12-13T12:00:34.583Z,7.92
2022-12-13T12:03:21.644Z,7.81
2022-12-13T12:06:17.688Z,8.21
2022-12-13T12:09:07.740Z,8.71
2022-12-13T12:12:06.570Z,7.95
2022-12-13T12:14:43.644Z,8.18
2022-12-13T12:17:16.205Z,6.89
2022-12-13T12:19:52.992Z,6.60
2022-12-13T12:23:11.601Z,5.82
2022-12-13T12:25:56.516Z,5.67
2022-12-13T12:29:02.142Z,5.70
2022-12-13T12:31:35.982Z,5.49
2022-12-13T12:35:00.358Z,5.41
2022-12-13T12:37:57.734Z,5.25
2022-12-13T12:41:18.193Z,5.08
2022-12-13T12:44:02.476Z,5.35
2022-12-13T12:50:32.537Z,5.53
2022-12-13T12:53:10.126Z,5.09
2022-12-13T12:55:38.093Z,4.70
2022-12-13T12:58:32.525Z,4.80
2022-12-13T13:01:03.127Z,4.77
2022-12-13T13:03:38.410Z,4.76
2022-12-13T13:06:19.419Z,4.56
2022-12-13T13:09:11.084Z,4.64
2022-12-13T13:14:40.517Z,4.47
2022-12-13T13:17:17.057Z,4.43
2022-12-13T13:20:11.282Z,4.31
2022-12-13T13:23:25.276Z,4.52
2022-12-13T13:28:54.025Z,4.36
2022-12-13T13:31:24.975Z,4.45
2022-12-13T13:33:55.571Z,4.30
2022-12-13T13:36:41.478Z,4.26
2022-12-13T13:40:09.790Z,4.09
2022-12-13T13:42:57.769Z,4.26
2022-12-13T13:45:51.537Z,3.98
2022-12-13T13:48:43.319Z,4.09
2022-12-13T13:51:29.562Z,3.85
2022-12-13T13:54:20.024Z,3.85
2022-12-13T13:57:15.315Z,3.84
2022-12-13T14:00:08.830Z,3.75
2022-12-13T14:02:54.474Z,3.86
2022-12-13T14:05:59.331Z,3.75
2022-12-13T14:08:50.032Z,3.76
2022-12-13T14:11:42.382Z,3.87
2022-12-13T14:14:27.661Z,3.69
2022-12-13T14:17:16.673Z,3.50
2022-12-13T14:20:14.666Z,3.67
2022-12-13T14:23:25.775Z,3.84
2022-12-13T14:26:02.293Z,3.67
2022-12-13T14:28:47.641Z,3.44
2022-12-13T14:31:28.031Z,3.12
2022-12-13T14:33:57.975Z,3.30
2022-12-13T14:36:34.758Z,3.21
2022-12-13T14:39:25.950Z,3.30
2022-12-13T14:41:57.537Z,3.35
2022-12-13T14:44:33.487Z,3.20
2022-12-13T14:47:08.412Z,3.27
2022-12-13T14:49:48.559Z,3.11
2022-12-13T14:52:39.000Z,3.07
2022-12-13T14:55:09.559Z,3.02
2022-12-13T14:57:52.255Z,2.93
2022-12-13T15:00:40.548Z,2.95
2022-12-13T15:03:20.070Z,2.88
2022-12-13T15:05:50.724Z,2.71
2022-12-13T15:08:20.734Z,2.59
2022-12-13T15:10:57.747Z,2.70
2022-12-13T15:13:34.173Z,2.79
2022-12-13T15:16:23.087Z,2.67
2022-12-13T15:19:37.546Z,2.83
2022-12-13T15:22:19.007Z,2.57
2022-12-13T15:24:50.332Z,2.61
2022-12-13T15:27:23.615Z,2.73
2022-12-13T15:30:01.235Z,2.58
2022-12-13T15:32:29.705Z,2.47
2022-12-13T15:35:17.944Z,2.24
2022-12-13T15:37:53.040Z,2.24
2022-12-13T15:40:30.570Z,2.21
2022-12-13T15:43:07.515Z,2.27
2022-12-13T15:45:38.245Z,2.16
2022-12-13T15:48:32.659Z,2.20
2022-12-13T15:51:28.663Z,2.09
2022-12-13T15:54:13.369Z,1.95
2022-12-13T15:57:12.765Z,1.99
2022-12-13T15:59:43.504Z,1.79
2022-12-13T16:02:21.831Z,1.90
2022-12-13T16:04:52.189Z,2.03
2022-12-13T16:07:27.949Z,1.74
2022-12-13T16:10:05.488Z,1.85
2022-12-13T16:12:47.716Z,1.70
2022-12-13T16:15:29.589Z,1.67
2022-12-13T16:18:19.183Z,1.68
2022-12-13T16:20:57.967Z,1.55
2022-12-13T16:23:31.381Z,1.68
2022-12-13T16:26:11.456Z,1.58
2022-12-13T16:28:44.660Z,1.47
2022-12-13T16:31:21.814Z,1.41
2022-12-13T16:33:53.844Z,1.47
2022-12-13T16:36:24.891Z,1.98
2022-12-13T16:39:00.946Z,2.49
2022-12-13T16:41:35.527Z,2.13
2022-12-13T16:44:19.285Z,1.72
2022-12-13T16:47:17.353Z,1.76
2022-12-13T16:49:41.978Z,1.33
2022-12-13T16:52:12.484Z,1.57
2022-12-13T16:54:45.949Z,1.67
2022-12-13T16:57:16.698Z,1.74
2022-12-13T16:59:50.242Z,1.82
2022-12-13T17:02:18.574Z,1.92
2022-12-13T17:04:48.689Z,1.68
2022-12-13T17:07:22.373Z,1.82
2022-12-13T17:09:52.719Z,1.76
2022-12-13T17:12:24.849Z,1.83
2022-12-13T17:14:55.690Z,1.87
2022-12-13T17:17:25.723Z,1.90
2022-12-13T17:20:02.508Z,1.91
2022-12-13T17:22:29.994Z,1.71
2022-12-13T17:25:00.481Z,1.70
2022-12-13T17:27:32.747Z,1.87
2022-12-13T17:30:09.588Z,1.80
2022-12-13T17:32:45.796Z,1.93
2022-12-13T17:35:19.568Z,2.03
2022-12-13T17:37:53.192Z,2.01
2022-12-13T17:40:30.633Z,1.76
2022-12-13T17:43:26.293Z,1.73
2022-12-13T17:46:08.787Z,1.89
2022-12-13T17:48:41.586Z,2.62
2022-12-13T17:51:20.985Z,2.27
2022-12-13T17:54:00.510Z,2.21
2022-12-13T17:56:31.614Z,2.19
2022-12-13T17:59:05.737Z,2.16
2022-12-13T18:01:42.129Z,1.92
2022-12-13T18:04:19.371Z,1.91
2022-12-13T18:06:53.345Z,1.92
2022-12-13T18:09:21.078Z,1.96
2022-12-13T18:11:51.257Z,1.98
2022-12-13T18:14:24.935Z,2.01
2022-12-13T18:16:58.410Z,2.00
2022-12-13T18:19:27.763Z,2.05
2022-12-13T18:22:07.067Z,1.82
2022-12-13T18:24:41.523Z,1.95
2022-12-13T18:27:17.925Z,1.76
2022-12-13T18:29:55.063Z,1.75
2022-12-13T18:32:29.487Z,1.92
2022-12-13T18:35:05.919Z,2.05
2022-12-13T18:37:40.288Z,2.12
2022-12-13T18:40:17.414Z,2.00
2022-12-13T18:42:52.370Z,2.12
2022-12-13T18:45:20.476Z,2.17
2022-12-13T18:47:57.970Z,2.28
2022-12-13T18:50:30.281Z,2.25
2022-12-13T18:53:00.215Z,2.25
2022-12-13T18:55:28.465Z,2.17
2022-12-13T18:57:58.873Z,2.21
2022-12-13T19:00:29.199Z,2.22
2022-12-13T19:03:02.207Z,2.00
2022-12-13T19:05:36.863Z,2.08
2022-12-13T19:08:13.457Z,2.15
2022-12-13T19:10:50.055Z,2.02
2022-12-13T19:13:25.626Z,1.92
2022-12-13T19:16:15.546Z,1.84
2022-12-13T19:18:51.222Z,1.85
2022-12-13T19:21:26.436Z,1.98
2022-12-13T19:23:58.619Z,1.94
2022-12-13T19:26:32.497Z,1.88
2022-12-13T19:29:19.712Z,1.89
2022-12-13T19:31:52.841Z,1.90
2022-12-13T19:34:24.131Z,1.83
2022-12-13T19:37:05.901Z,1.64
2022-12-13T19:39:37.151Z,1.62
2022-12-13T19:42:22.457Z,1.71
2022-12-13T19:44:53.969Z,1.73
2022-12-13T19:47:30.442Z,1.53
2022-12-13T19:50:01.731Z,1.70
2022-12-13T19:52:41.628Z,1.61
2022-12-13T19:55:09.190Z,1.60
2022-12-13T19:57:40.462Z,1.52
2022-12-13T20:00:08.806Z,1.53
2022-12-13T20:02:46.008Z,1.51
2022-12-13T20:05:20.788Z,1.54
2022-12-13T20:07:52.757Z,1.58
2022-12-13T20:10:30.563Z,1.72
2022-12-13T20:13:11.127Z,1.91
2022-12-13T20:15:53.588Z,1.89
2022-12-13T20:18:25.001Z,1.61
2022-12-13T20:21:13.474Z,1.85
2022-12-13T20:23:49.928Z,1.81
2022-12-13T20:26:26.170Z,1.85
2022-12-13T20:29:03.256Z,1.87
2022-12-13T20:31:48.359Z,2.04
2022-12-13T20:34:25.167Z,1.80
2022-12-13T20:37:01.445Z,1.65
2022-12-13T20:39:39.067Z,1.71
2022-12-13T20:42:18.088Z,1.77
2022-12-13T20:45:04.703Z,1.63
2022-12-13T20:47:38.094Z,1.72
2022-12-13T20:50:10.530Z,1.69
2022-12-13T20:52:43.234Z,1.87
2022-12-13T20:55:20.284Z,1.81
2022-12-13T20:58:05.218Z,1.58
2022-12-13T21:00:36.017Z,1.61
2022-12-13T21:03:09.897Z,1.70
2022-12-13T21:05:52.772Z,1.75
2022-12-13T21:08:33.682Z,1.59
2022-12-13T21:11:05.669Z,1.67
2022-12-13T21:13:39.541Z,1.55
2022-12-13T21:16:14.771Z,1.70
2022-12-13T21:18:52.765Z,1.73
2022-12-13T21:21:30.131Z,1.78
2022-12-13T21:24:07.194Z,1.39
2022-12-13T21:26:40.999Z,1.45
2022-12-13T21:29:15.365Z,1.58
2022-12-13T21:31:48.854Z,1.73
2022-12-13T21:34:26.646Z,1.68
2022-12-13T21:37:01.130Z,1.51
2022-12-13T21:39:41.152Z,1.51
2022-12-13T21:42:20.578Z,1.63
2022-12-13T21:47:49.989Z,1.68
2022-12-13T21:50:26.388Z,1.64
2022-12-13T21:52:57.267Z,1.56
2022-12-13T21:55:43.846Z,1.62
2022-12-13T21:58:18.562Z,1.63
2022-12-13T22:00:47.476Z,1.51
2022-12-13T22:03:34.585Z,1.66
2022-12-13T22:06:09.204Z,1.74
2022-12-13T22:08:45.672Z,1.66
2022-12-13T22:11:21.366Z,1.81
2022-12-13T22:14:01.428Z,1.86
2022-12-13T22:16:39.355Z,1.78
2022-12-13T22:19:16.517Z,1.88
2022-12-13T22:21:57.615Z,1.78
2022-12-13T22:24:42.220Z,1.42
2022-12-13T22:27:21.360Z,1.57
2022-12-13T22:30:00.085Z,1.62
2022-12-13T22:32:33.971Z,1.43
2022-12-13T22:35:14.522Z,1.29
2022-12-13T22:37:42.501Z,1.40
2022-12-13T22:40:18.547Z,1.30
2022-12-13T22:42:58.820Z,1.36
2022-12-13T22:45:28.683Z,1.45
2022-12-13T22:48:07.468Z,1.55
2022-12-13T22:51:13.804Z,1.64
2022-12-13T22:53:48.310Z,1.56
2022-12-13T22:56:21.218Z,1.62
2022-12-13T22:59:00.415Z,1.55
2022-12-13T23:01:33.707Z,1.62
2022-12-13T23:04:11.562Z,1.48
2022-12-13T23:06:48.522Z,1.36
2022-12-13T23:09:22.872Z,1.49
2022-12-13T23:11:50.922Z,1.25
2022-12-13T23:14:39.676Z,1.35
2022-12-13T23:17:17.438Z,1.33
2022-12-13T23:20:00.124Z,1.02
2022-12-13T23:22:38.097Z,1.09
2022-12-13T23:25:14.438Z,1.06
2022-12-13T23:27:45.999Z,1.32
2022-12-13T23:30:26.096Z,0.97
2022-12-13T23:32:59.350Z,1.30
2022-12-13T23:35:32.681Z,1.20
2022-12-13T23:38:00.400Z,1.08
2022-12-13T23:40:34.197Z,1.10
2022-12-13T23:43:07.633Z,1.18
2022-12-13T23:45:42.012Z,1.12
2022-12-13T23:48:22.354Z,0.96
2022-12-13T23:50:56.351Z,1.03
2022-12-13T23:53:27.761Z,1.06
2022-12-13T23:56:07.954Z,1.12
2022-12-13T23:58:43.022Z,0.72
